createdAt,value
2023-05-21T00:00:41.866Z,97567.28
2023-05-21T00:03:14.302Z,97518.75
2023-05-21T00:05:45.366Z,97517.97
2023-05-21T00:08:14.239Z,97568.84
2023-05-21T00:10:42.638Z,97576.06
2023-05-21T00:13:10.969Z,97567.84
2023-05-21T00:15:39.606Z,97566.63
2023-05-21T00:18:08.068Z,97560.66
2023-05-21T00:20:37.328Z,97554.91
2023-05-21T00:23:06.982Z,97566.16
2023-05-21T00:25:35.504Z,97565.16
2023-05-21T00:28:04.150Z,97558.31
2023-05-21T00:30:32.352Z,97561.72
2023-05-21T00:33:02.882Z,97563.66
2023-05-21T00:35:31.409Z,97556.81
2023-05-21T00:38:00.560Z,97546.47
2023-05-21T00:40:30.189Z,97551.81
2023-05-21T00:42:58.519Z,97554.81
2023-05-21T00:45:26.786Z,97545.47
2023-05-21T00:47:55.938Z,97544.47
2023-05-21T00:50:24.913Z,97545.31
2023-05-21T00:52:53.468Z,97555.19
2023-05-21T00:55:21.890Z,97549.91
2023-05-21T00:57:51.986Z,97541.06
2023-05-21T01:00:21.050Z,97541.19
2023-05-21T01:02:50.098Z,97542.00
2023-05-21T01:05:18.533Z,97537.28
2023-05-21T01:07:47.008Z,97533.78
2023-05-21T01:10:15.619Z,97534.66
2023-05-21T01:12:45.778Z,97531.34
2023-05-21T01:15:15.736Z,97539.75
2023-05-21T01:17:46.254Z,97534.19
2023-05-21T01:20:18.357Z,97523.94
2023-05-21T01:22:54.317Z,97527.97
2023-05-21T01:25:23.257Z,97527.97
2023-05-21T01:27:51.728Z,97527.63
2023-05-21T01:30:22.181Z,97524.75
2023-05-21T01:32:58.082Z,97522.06
2023-05-21T01:35:31.667Z,97518.31
2023-05-21T01:38:08.435Z,97521.34
2023-05-21T01:40:41.235Z,97517.97
2023-05-21T01:43:10.809Z,97515.41
2023-05-21T01:45:42.065Z,97517.72
2023-05-21T01:48:12.723Z,97516.09
2023-05-21T01:50:42.981Z,97517.97
2023-05-21T01:53:12.922Z,97513.25
2023-05-21T01:55:42.252Z,97512.31
2023-05-21T01:58:11.177Z,97518.53
2023-05-21T02:00:40.177Z,97500.53
2023-05-21T02:03:09.066Z,97505.78
2023-05-21T02:05:37.897Z,97505.78
2023-05-21T02:08:08.665Z,97505.38
2023-05-21T02:10:38.465Z,97496.00
2023-05-21T02:13:06.759Z,97446.31
2023-05-21T02:15:35.669Z,97486.28
2023-05-21T02:18:04.697Z,97491.47
2023-05-21T02:20:33.412Z,97390.06
2023-05-21T02:23:01.726Z,97503.97
2023-05-21T02:25:30.020Z,97393.13
2023-05-21T02:27:59.776Z,97503.41
2023-05-21T02:30:28.233Z,97520.03
2023-05-21T02:32:59.024Z,97519.03
2023-05-21T02:35:27.617Z,97527.13
2023-05-21T02:37:59.397Z,97517.72
2023-05-21T02:40:27.896Z,97514.19
2023-05-21T02:42:56.108Z,97495.84
2023-05-21T02:45:26.020Z,97516.31
2023-05-21T02:47:54.255Z,97517.50
2023-05-21T02:50:23.528Z,97507.91
2023-05-21T02:52:52.407Z,97489.78
2023-05-21T02:55:20.928Z,97502.91
2023-05-21T02:57:49.614Z,97490.25
2023-05-21T03:00:18.242Z,97502.56
2023-05-21T03:02:48.174Z,97499.84
2023-05-21T03:05:16.611Z,97493.81
2023-05-21T03:07:44.764Z,97484.59
2023-05-21T03:10:13.009Z,97469.13
2023-05-21T03:12:41.263Z,97488.66
2023-05-21T03:15:11.102Z,97479.78
2023-05-21T03:17:39.615Z,97487.03
2023-05-21T03:20:16.474Z,97479.84
2023-05-21T03:22:45.155Z,97488.53
2023-05-21T03:25:13.806Z,97439.47
2023-05-21T03:27:42.172Z,97481.59
2023-05-21T03:30:11.168Z,97485.16
2023-05-21T03:32:41.577Z,97486.63
2023-05-21T03:35:11.922Z,97451.50
2023-05-21T03:37:40.157Z,97492.28
2023-05-21T03:40:09.652Z,97491.63
2023-05-21T03:42:37.821Z,97500.41
2023-05-21T03:45:06.662Z,97504.53
2023-05-21T03:47:36.177Z,97482.47
2023-05-21T03:50:05.853Z,97485.50
2023-05-21T03:52:35.559Z,97495.44
2023-05-21T03:55:03.919Z,97500.59
2023-05-21T03:57:32.305Z,97504.75
2023-05-21T04:00:00.925Z,97506.47
2023-05-21T04:02:29.271Z,97511.31
2023-05-21T04:04:57.601Z,97509.47
2023-05-21T04:07:27.315Z,97473.13
2023-05-21T04:09:57.026Z,97512.81
2023-05-21T04:12:25.341Z,97523.84
2023-05-21T04:14:53.794Z,97520.94
2023-05-21T04:17:22.115Z,97519.22
2023-05-21T04:19:50.426Z,97509.72
2023-05-21T04:22:18.608Z,97513.75
2023-05-21T04:24:48.979Z,97527.47
2023-05-21T04:27:19.403Z,97458.75
2023-05-21T04:29:50.617Z,97543.94
2023-05-21T04:32:19.159Z,97533.72
2023-05-21T04:34:47.438Z,97535.03
2023-05-21T04:37:18.023Z,97530.81
2023-05-21T04:39:47.056Z,97543.84
2023-05-21T04:42:15.473Z,97514.16
2023-05-21T04:44:45.162Z,97556.25
2023-05-21T04:47:15.114Z,97551.28
2023-05-21T04:49:43.327Z,97550.66
2023-05-21T04:52:12.014Z,97557.75
2023-05-21T04:54:42.195Z,97552.59
2023-05-21T04:57:10.517Z,97375.66
2023-05-21T04:59:39.414Z,97547.06
2023-05-21T05:02:09.059Z,97548.50
2023-05-21T05:04:37.256Z,97556.09
2023-05-21T05:07:05.738Z,97557.44
2023-05-21T05:09:34.052Z,97563.94
2023-05-21T05:12:02.337Z,97552.72
2023-05-21T05:14:30.635Z,97564.09
2023-05-21T05:17:00.936Z,97563.13
2023-05-21T05:19:32.140Z,97565.31
2023-05-21T05:22:00.522Z,97517.56
2023-05-21T05:24:28.773Z,97561.31
2023-05-21T05:26:56.992Z,97531.28
2023-05-21T05:29:25.283Z,97563.47
2023-05-21T05:31:53.518Z,97567.72
2023-05-21T05:34:21.816Z,97564.84
2023-05-21T05:36:51.650Z,97571.00
2023-05-21T05:39:19.968Z,97561.63
2023-05-21T05:41:48.419Z,97557.84
2023-05-21T05:44:16.713Z,97578.03
2023-05-21T05:46:45.205Z,97580.56
2023-05-21T05:49:13.833Z,97579.22
2023-05-21T05:51:42.405Z,97579.44
2023-05-21T05:54:12.043Z,97559.59
2023-05-21T05:56:40.267Z,97575.00
2023-05-21T05:59:08.574Z,97577.09
2023-05-21T06:01:36.932Z,97578.69
2023-05-21T06:04:05.400Z,97574.59
2023-05-21T06:06:34.926Z,97573.72
2023-05-21T06:09:03.229Z,97571.91
2023-05-21T06:11:32.901Z,97566.59
2023-05-21T06:14:02.178Z,97579.63
2023-05-21T06:16:31.594Z,97574.13
2023-05-21T06:19:00.170Z,97578.66
2023-05-21T06:21:28.730Z,97575.00
2023-05-21T06:23:57.118Z,97586.31
2023-05-21T06:26:25.395Z,97567.97
2023-05-21T06:28:55.228Z,97578.34
2023-05-21T06:31:23.463Z,97574.81
2023-05-21T06:33:52.132Z,97554.59
2023-05-21T06:36:20.515Z,97566.50
2023-05-21T06:38:48.726Z,97576.81
2023-05-21T06:41:17.163Z,97580.94
2023-05-21T06:43:45.448Z,97584.56
2023-05-21T06:46:15.116Z,97489.81
2023-05-21T06:48:43.806Z,97571.69
2023-05-21T06:51:12.043Z,97581.59
2023-05-21T06:53:40.273Z,97568.75
2023-05-21T06:56:08.879Z,97541.91
2023-05-21T06:58:37.134Z,97568.00
2023-05-21T07:01:05.512Z,97575.16
2023-05-21T07:03:35.313Z,97581.09
2023-05-21T07:06:03.637Z,97573.34
2023-05-21T07:08:31.913Z,97580.81
2023-05-21T07:11:00.243Z,97571.66
2023-05-21T07:13:28.601Z,97574.41
2023-05-21T07:15:56.909Z,97575.47
2023-05-21T07:18:25.126Z,97572.56
2023-05-21T07:20:55.042Z,97575.22
2023-05-21T07:23:23.506Z,97558.78
2023-05-21T07:25:52.100Z,97543.97
2023-05-21T07:28:20.586Z,97583.69
2023-05-21T07:30:48.845Z,97566.78
2023-05-21T07:33:17.443Z,97562.22
2023-05-21T07:35:45.810Z,97569.84
2023-05-21T07:38:15.584Z,97579.06
2023-05-21T07:40:43.811Z,97571.97
2023-05-21T07:43:12.037Z,97570.25
2023-05-21T07:45:40.385Z,97570.97
2023-05-21T07:48:08.743Z,97557.72
2023-05-21T07:50:37.906Z,97566.28
2023-05-21T07:53:06.216Z,97543.59
2023-05-21T07:55:36.169Z,97567.06
2023-05-21T07:58:04.570Z,97561.44
2023-05-21T08:00:44.650Z,97567.66
2023-05-21T08:03:13.297Z,97570.38
2023-05-21T08:05:41.957Z,97579.94
2023-05-21T08:08:10.174Z,97570.59
2023-05-21T08:10:39.848Z,97562.53
2023-05-21T08:13:08.202Z,97566.41
2023-05-21T08:15:36.689Z,97573.16
2023-05-21T08:18:05.860Z,97558.94
2023-05-21T08:20:34.549Z,97552.41
2023-05-21T08:23:02.940Z,97571.75
2023-05-21T08:25:31.440Z,97575.69
2023-05-21T08:28:01.258Z,97567.56
2023-05-21T08:30:29.534Z,97576.69
2023-05-21T08:32:57.861Z,97566.66
2023-05-21T08:35:26.275Z,97557.44
2023-05-21T08:37:54.619Z,97571.53
2023-05-21T08:40:22.950Z,97568.47
2023-05-21T08:42:51.643Z,97560.41
2023-05-21T08:45:23.639Z,97567.19
2023-05-21T08:47:57.633Z,97560.50
2023-05-21T08:50:28.922Z,97567.41
2023-05-21T08:52:59.123Z,97572.28
2023-05-21T08:55:27.733Z,97564.88
2023-05-21T08:57:56.183Z,97573.56
2023-05-21T09:00:25.938Z,97568.59
2023-05-21T09:02:56.420Z,97575.38
2023-05-21T09:05:26.584Z,97556.44
2023-05-21T09:08:02.123Z,97531.03
2023-05-21T09:10:35.517Z,97541.06
2023-05-21T09:13:04.426Z,97538.50
2023-05-21T09:15:34.247Z,97564.66
2023-05-21T09:18:02.900Z,97566.09
2023-05-21T09:20:31.963Z,97571.81
2023-05-21T09:23:04.587Z,97543.97
2023-05-21T09:25:33.115Z,97553.47
2023-05-21T09:28:01.418Z,97566.88
2023-05-21T09:30:31.306Z,97566.72
2023-05-21T09:33:03.653Z,97572.63
2023-05-21T09:35:32.143Z,97563.09
2023-05-21T09:38:02.054Z,97555.19
2023-05-21T09:40:30.340Z,97565.13
2023-05-21T09:42:58.636Z,97563.44
2023-05-21T09:45:28.299Z,97565.38
2023-05-21T09:47:57.320Z,97566.47
2023-05-21T09:50:28.406Z,97565.97
2023-05-21T09:52:58.167Z,97564.56
2023-05-21T09:55:27.816Z,97532.75
2023-05-21T09:57:56.381Z,97555.72
2023-05-21T10:00:27.559Z,97552.25
2023-05-21T10:02:56.834Z,97540.91
2023-05-21T10:05:28.976Z,97548.31
2023-05-21T10:08:02.077Z,97526.78
2023-05-21T10:10:31.978Z,97550.56
2023-05-21T10:13:02.575Z,97550.75
2023-05-21T10:15:37.744Z,97558.06
2023-05-21T10:18:06.456Z,97550.16
2023-05-21T10:20:38.156Z,97516.56
2023-05-21T10:23:06.917Z,97550.00
2023-05-21T10:25:36.337Z,97551.16
2023-05-21T10:28:05.011Z,97548.09
2023-05-21T10:30:33.681Z,97545.47
2023-05-21T10:33:03.475Z,97543.16
2023-05-21T10:35:33.666Z,97546.16
2023-05-21T10:38:05.606Z,97542.25
2023-05-21T10:40:34.333Z,97540.06
2023-05-21T10:43:32.675Z,97534.91
2023-05-21T10:46:20.946Z,97538.53
2023-05-21T10:49:02.356Z,97492.97
2023-05-21T10:51:43.321Z,97481.13
2023-05-21T10:54:39.985Z,97535.38
2023-05-21T10:57:24.319Z,97532.81
2023-05-21T10:59:53.816Z,97528.53
2023-05-21T11:02:22.904Z,97530.66
2023-05-21T11:04:59.877Z,97529.81
2023-05-21T11:07:53.080Z,97525.91
2023-05-21T11:10:39.761Z,97522.72
2023-05-21T11:13:14.670Z,97522.28
2023-05-21T11:16:08.211Z,97514.59
2023-05-21T11:19:06.716Z,97507.94
2023-05-21T11:21:37.867Z,97521.25
2023-05-21T11:24:11.282Z,97525.41
2023-05-21T11:27:05.076Z,97516.78
2023-05-21T11:29:48.909Z,97506.75
2023-05-21T11:32:20.848Z,97496.16
2023-05-21T11:34:50.445Z,97462.47
2023-05-21T11:37:30.465Z,97492.28
2023-05-21T11:40:17.127Z,97510.72
2023-05-21T11:42:52.007Z,97516.72
2023-05-21T11:45:21.773Z,97462.81
2023-05-21T11:47:51.616Z,97508.81
2023-05-21T11:50:20.858Z,97506.94
2023-05-21T11:52:50.612Z,97416.56
2023-05-21T11:55:23.709Z,97496.25
2023-05-21T11:57:55.395Z,97493.91
2023-05-21T12:00:23.854Z,97459.72
2023-05-21T12:02:53.736Z,97494.63
2023-05-21T12:05:23.154Z,97489.41
2023-05-21T12:07:51.568Z,97473.50
2023-05-21T12:10:24.214Z,97497.41
2023-05-21T12:12:57.018Z,97485.16
2023-05-21T12:15:27.586Z,97480.38
2023-05-21T12:17:57.226Z,97479.66
2023-05-21T12:20:28.314Z,97486.19
2023-05-21T12:22:59.062Z,97481.22
2023-05-21T12:25:27.794Z,97479.53
2023-05-21T12:27:58.950Z,97460.59
2023-05-21T12:30:27.575Z,97483.16
2023-05-21T12:32:59.752Z,97487.50
2023-05-21T12:35:28.231Z,97466.59
2023-05-21T12:37:56.868Z,97472.44
2023-05-21T12:40:38.432Z,97470.91
2023-05-21T12:43:09.038Z,97460.63
2023-05-21T12:45:39.591Z,97457.56
2023-05-21T12:50:40.610Z,97450.00
2023-05-21T12:53:10.882Z,97428.00
2023-05-21T12:55:39.121Z,97447.47
2023-05-21T12:58:09.538Z,97442.88
2023-05-21T13:00:38.660Z,97444.25
2023-05-21T13:03:07.487Z,97435.88
2023-05-21T13:05:36.396Z,97433.63
2023-05-21T13:08:04.872Z,97412.94
2023-05-21T13:10:33.073Z,97421.38
2023-05-21T13:13:02.095Z,97415.63
2023-05-21T13:15:31.768Z,97422.19
2023-05-21T13:18:01.484Z,97411.19
2023-05-21T13:20:30.289Z,97422.31
2023-05-21T13:22:58.670Z,97423.34
2023-05-21T13:25:29.919Z,97422.84
2023-05-21T13:27:59.368Z,97419.97
2023-05-21T13:30:27.782Z,97414.41
2023-05-21T13:32:57.611Z,97349.53
2023-05-21T13:35:26.557Z,97376.81
2023-05-21T13:37:55.141Z,97389.53
2023-05-21T13:40:23.968Z,97388.56
2023-05-21T13:42:52.508Z,97373.78
2023-05-21T13:45:24.462Z,97367.06
2023-05-21T13:47:52.944Z,97382.28
2023-05-21T13:50:22.843Z,97383.22
2023-05-21T13:52:51.239Z,97371.09
2023-05-21T13:55:19.468Z,97377.03
2023-05-21T13:57:47.831Z,97384.09
2023-05-21T14:00:16.475Z,97380.41
2023-05-21T14:02:45.511Z,97371.50
2023-05-21T14:05:14.241Z,97378.41
2023-05-21T14:07:43.848Z,97384.50
2023-05-21T14:10:13.686Z,97373.53
2023-05-21T14:12:42.323Z,97374.91
2023-05-21T14:15:11.251Z,97351.56
2023-05-21T14:17:40.883Z,97345.31
2023-05-21T14:20:10.716Z,97364.69
2023-05-21T14:22:39.448Z,97352.34
2023-05-21T14:25:09.953Z,97354.72
2023-05-21T14:27:39.031Z,97350.56
2023-05-21T14:30:08.475Z,97355.63
2023-05-21T14:32:36.976Z,97349.97
2023-05-21T14:35:06.456Z,97345.53
2023-05-21T14:37:34.848Z,97342.59
2023-05-21T14:40:03.206Z,97339.41
2023-05-21T14:42:32.967Z,97356.94
2023-05-21T14:45:17.076Z,97345.38
2023-05-21T14:47:48.076Z,97347.81
2023-05-21T14:50:17.762Z,97335.84
2023-05-21T14:52:46.140Z,97341.78
2023-05-21T14:55:16.889Z,97336.19
2023-05-21T14:57:46.854Z,97341.25
2023-05-21T15:00:15.753Z,97307.00
2023-05-21T15:02:44.339Z,97337.91
2023-05-21T15:05:12.705Z,97344.13
2023-05-21T15:07:41.022Z,97344.47
2023-05-21T15:10:10.779Z,97334.16
2023-05-21T15:12:39.147Z,97340.28
2023-05-21T15:15:10.186Z,97336.69
2023-05-21T15:17:38.513Z,97330.75
2023-05-21T15:20:09.599Z,97345.59
2023-05-21T15:22:38.426Z,97343.47
2023-05-21T15:25:07.707Z,97340.84
2023-05-21T15:27:36.355Z,97281.41
2023-05-21T15:30:05.253Z,97343.19
2023-05-21T15:32:34.954Z,97333.41
2023-05-21T15:35:03.367Z,97326.91
2023-05-21T15:37:33.204Z,97338.94
2023-05-21T15:40:01.598Z,97345.28
2023-05-21T15:42:32.009Z,97341.31
2023-05-21T15:45:00.485Z,97342.88
2023-05-21T15:47:28.908Z,97346.69
2023-05-21T15:50:00.518Z,97252.75
2023-05-21T15:52:28.847Z,97344.84
2023-05-21T15:54:57.067Z,97342.47
2023-05-21T15:57:25.318Z,97346.81
2023-05-21T15:59:54.033Z,97350.88
2023-05-21T16:02:22.274Z,97332.19
2023-05-21T16:04:52.268Z,97341.25
2023-05-21T16:07:24.704Z,97352.69
2023-05-21T16:09:52.985Z,97350.25
2023-05-21T16:12:21.282Z,97352.84
2023-05-21T16:14:51.161Z,97328.22
2023-05-21T16:17:19.890Z,97357.19
2023-05-21T16:19:48.530Z,97358.97
2023-05-21T16:22:17.300Z,97367.94
2023-05-21T16:24:47.043Z,97344.28
2023-05-21T16:27:15.329Z,97364.94
2023-05-21T16:29:43.932Z,97367.06
2023-05-21T16:32:14.229Z,97352.47
2023-05-21T16:34:42.984Z,97357.38
2023-05-21T16:37:11.437Z,97357.16
2023-05-21T16:39:39.849Z,97346.72
2023-05-21T16:42:09.500Z,97360.59
2023-05-21T16:44:38.690Z,97357.31
2023-05-21T16:47:07.146Z,97356.28
2023-05-21T16:49:35.351Z,97350.56
2023-05-21T16:52:04.218Z,97339.63
2023-05-21T16:54:32.649Z,97350.25
2023-05-21T16:57:01.294Z,97345.66
2023-05-21T16:59:31.317Z,97337.50
2023-05-21T17:01:59.769Z,97350.56
2023-05-21T17:04:28.179Z,97348.91
2023-05-21T17:06:56.530Z,97353.31
2023-05-21T17:09:24.958Z,97343.44
2023-05-21T17:11:53.163Z,97357.78
2023-05-21T17:14:33.188Z,97354.03
2023-05-21T17:17:03.794Z,97355.94
2023-05-21T17:19:32.318Z,97349.69
2023-05-21T17:22:00.606Z,97365.31
2023-05-21T17:24:28.855Z,97365.72
2023-05-21T17:26:57.194Z,97372.34
2023-05-21T17:29:25.510Z,97375.50
2023-05-21T17:31:53.876Z,97381.28
2023-05-21T17:34:26.301Z,97373.59
2023-05-21T17:36:55.508Z,97339.56
2023-05-21T17:39:24.089Z,97376.00
2023-05-21T17:41:54.572Z,97382.38
2023-05-21T17:44:22.977Z,97350.88
2023-05-21T17:46:52.092Z,97384.38
2023-05-21T17:49:20.872Z,97385.03
2023-05-21T17:51:50.807Z,97395.03
2023-05-21T17:54:20.188Z,97389.78
2023-05-21T17:56:48.502Z,97398.16
2023-05-21T17:59:17.310Z,97367.13
2023-05-21T18:01:45.589Z,97399.03
2023-05-21T18:04:14.039Z,97405.34
2023-05-21T18:06:42.360Z,97406.78
2023-05-21T18:09:14.506Z,97406.41
2023-05-21T18:11:44.616Z,97393.38
2023-05-21T18:14:13.028Z,97411.03
2023-05-21T18:16:42.169Z,97413.34
2023-05-21T18:19:10.845Z,97412.22
2023-05-21T18:21:39.435Z,97413.88
2023-05-21T18:24:08.509Z,97414.59
2023-05-21T18:26:38.281Z,97420.41
2023-05-21T18:29:06.653Z,97224.25
2023-05-21T18:31:35.039Z,97413.13
2023-05-21T18:34:03.590Z,97424.53
2023-05-21T18:36:38.573Z,97421.69
2023-05-21T18:39:07.919Z,97417.88
2023-05-21T18:41:38.380Z,97412.47
2023-05-21T18:44:07.327Z,97418.56
2023-05-21T18:46:35.836Z,97398.69
2023-05-21T18:49:04.510Z,97424.66
2023-05-21T18:51:32.933Z,97418.69
2023-05-21T18:54:01.201Z,97424.88
2023-05-21T18:56:29.582Z,97428.19
2023-05-21T18:58:59.465Z,97437.75
2023-05-21T19:01:27.961Z,97432.13
2023-05-21T19:03:56.196Z,97437.22
2023-05-21T19:06:25.761Z,97439.25
2023-05-21T19:08:54.353Z,97409.75
2023-05-21T19:11:23.802Z,97443.72
2023-05-21T19:13:52.406Z,97447.13
2023-05-21T19:16:22.284Z,97453.16
2023-05-21T19:18:50.741Z,97454.53
2023-05-21T19:21:20.033Z,97460.09
2023-05-21T19:23:53.724Z,97467.16
2023-05-21T19:26:23.534Z,97460.91
2023-05-21T19:28:53.914Z,97475.59
2023-05-21T19:31:25.429Z,97482.41
2023-05-21T19:33:54.112Z,97479.06
2023-05-21T19:36:23.054Z,97495.53
2023-05-21T19:38:51.965Z,97479.69
2023-05-21T19:41:21.721Z,97487.00
2023-05-21T19:43:50.354Z,97497.97
2023-05-21T19:46:20.485Z,97497.22
2023-05-21T19:48:52.110Z,97506.03
2023-05-21T19:51:20.457Z,97497.88
2023-05-21T19:53:48.731Z,97494.75
2023-05-21T19:56:17.717Z,97499.97
2023-05-21T19:58:48.160Z,97502.09
2023-05-21T20:01:17.513Z,97466.94
2023-05-21T20:03:46.393Z,97503.25
2023-05-21T20:06:19.181Z,97501.06
2023-05-21T20:08:47.840Z,97507.34
2023-05-21T20:11:16.197Z,97499.44
2023-05-21T20:13:48.633Z,97491.47
2023-05-21T20:16:18.563Z,97497.47
2023-05-21T20:18:47.503Z,97491.19
2023-05-21T20:21:18.846Z,97496.34
2023-05-21T20:23:47.378Z,97490.22
2023-05-21T20:26:16.416Z,97491.84
2023-05-21T20:28:44.853Z,97480.00
2023-05-21T20:31:13.167Z,97484.16
2023-05-21T20:33:42.128Z,97482.94
2023-05-21T20:36:10.679Z,97488.63
2023-05-21T20:38:42.363Z,97423.81
2023-05-21T20:41:10.740Z,97465.69
2023-05-21T20:43:39.065Z,97477.34
2023-05-21T20:46:07.987Z,97484.53
2023-05-21T20:48:38.019Z,97474.69
2023-05-21T20:51:06.702Z,97476.31
2023-05-21T20:53:34.944Z,97472.31
2023-05-21T20:56:08.350Z,97463.41
2023-05-21T20:58:36.702Z,97461.88
2023-05-21T21:01:05.064Z,97481.31
2023-05-21T21:03:34.420Z,97437.03
2023-05-21T21:06:03.305Z,97476.56
2023-05-21T21:08:31.555Z,97481.00
2023-05-21T21:10:59.797Z,97480.44
2023-05-21T21:13:29.466Z,97475.41
2023-05-21T21:15:57.751Z,97471.41
2023-05-21T21:18:26.010Z,97480.91
2023-05-21T21:20:54.451Z,97482.66
2023-05-21T21:23:24.591Z,97482.13
2023-05-21T21:25:52.970Z,97485.13
2023-05-21T21:28:21.213Z,97488.63
2023-05-21T21:30:51.201Z,97483.66
2023-05-21T21:33:19.611Z,97487.41
2023-05-21T21:35:47.942Z,97494.34
2023-05-21T21:38:16.278Z,97422.81
2023-05-21T21:40:44.497Z,97490.31
2023-05-21T21:43:13.009Z,97492.31
2023-05-21T21:45:41.464Z,97470.88
2023-05-21T21:48:11.485Z,97489.91
2023-05-21T21:50:40.047Z,97486.22
2023-05-21T21:53:10.058Z,97489.53
2023-05-21T21:55:38.251Z,97488.06
2023-05-21T21:58:06.999Z,97448.81
2023-05-21T22:00:35.475Z,97425.75
2023-05-21T22:03:03.785Z,97487.72
2023-05-21T22:05:34.193Z,97489.53
2023-05-21T22:08:03.300Z,97492.63
2023-05-21T22:10:33.647Z,97495.88
2023-05-21T22:13:02.870Z,97494.16
2023-05-21T22:15:32.407Z,97483.97
2023-05-21T22:18:02.466Z,97490.91
2023-05-21T22:20:31.059Z,97491.94
2023-05-21T22:23:00.877Z,97458.88
2023-05-21T22:25:29.169Z,97487.06
2023-05-21T22:27:57.462Z,97490.16
2023-05-21T22:30:25.785Z,97486.13
2023-05-21T22:32:54.190Z,97488.25
2023-05-21T22:35:22.452Z,97436.78
2023-05-21T22:37:50.883Z,97466.41
2023-05-21T22:40:20.753Z,97490.34
2023-05-21T22:42:49.343Z,97482.88
2023-05-21T22:45:19.078Z,97481.19
2023-05-21T22:47:48.303Z,97494.22
2023-05-21T22:50:16.792Z,97485.94
2023-05-21T22:52:45.210Z,97479.91
2023-05-21T22:55:13.519Z,97484.25
2023-05-21T22:57:43.341Z,97488.44
2023-05-21T23:00:12.466Z,97484.75
2023-05-21T23:02:40.927Z,97473.94
2023-05-21T23:05:10.031Z,97477.94
2023-05-21T23:07:38.405Z,97471.19
2023-05-21T23:10:07.416Z,97437.63
2023-05-21T23:12:35.801Z,97468.19
2023-05-21T23:15:07.518Z,97467.59
2023-05-21T23:17:36.115Z,97464.09
2023-05-21T23:20:04.444Z,97467.44
2023-05-21T23:22:32.854Z,97469.22
2023-05-21T23:25:01.194Z,97474.63
2023-05-21T23:27:29.585Z,97461.38
2023-05-21T23:29:57.884Z,97460.78
2023-05-21T23:32:27.653Z,97456.84
2023-05-21T23:34:57.153Z,97453.78
2023-05-21T23:37:25.442Z,97454.34
2023-05-21T23:39:53.954Z,97455.34
2023-05-21T23:42:22.255Z,97456.28
2023-05-21T23:44:50.433Z,97457.41
2023-05-21T23:47:18.598Z,97459.63
2023-05-21T23:49:48.256Z,97440.41
2023-05-21T23:52:17.452Z,97450.13
2023-05-21T23:54:45.655Z,97455.25
2023-05-21T23:57:14.476Z,97447.03
2023-05-21T23:59:42.750Z,97446.50
